createdAt,value
2023-04-11T00:04:19.800Z,9.06
2023-04-11T00:14:28.014Z,9.17
2023-04-11T00:19:30.270Z,9.25
2023-04-11T00:24:41.447Z,9.31
2023-04-11T00:29:43.714Z,9.35
2023-04-11T00:34:54.896Z,9.39
2023-04-11T00:40:06.083Z,9.40
2023-04-11T00:45:17.182Z,9.42
2023-04-11T00:50:28.394Z,9.44
2023-04-11T00:55:30.634Z,9.45
2023-04-11T01:00:41.849Z,9.44
2023-04-11T01:05:52.953Z,9.47
2023-04-11T01:10:55.270Z,9.46
2023-04-11T01:15:59.405Z,9.44
2023-04-11T01:21:03.615Z,9.42
2023-04-11T01:26:08.095Z,9.40
2023-04-11T01:31:11.964Z,9.41
2023-04-11T01:36:16.063Z,9.37
2023-04-11T01:41:20.233Z,9.35
2023-04-11T01:46:24.393Z,9.34
2023-04-11T01:51:28.573Z,9.34
2023-04-11T01:56:32.742Z,9.27
2023-04-11T02:01:36.922Z,9.24
2023-04-11T02:06:41.036Z,9.22
2023-04-11T02:11:45.212Z,9.25
2023-04-11T02:16:49.393Z,9.20
2023-04-11T02:21:53.547Z,9.14
2023-04-11T02:26:57.714Z,9.06
2023-04-11T02:32:01.947Z,9.06
2023-04-11T02:37:06.020Z,9.06
2023-04-11T02:42:10.173Z,9.04
2023-04-11T02:47:14.354Z,8.99
2023-04-11T02:52:18.506Z,8.90
2023-04-11T02:57:20.779Z,8.77
2023-04-11T03:02:25.009Z,8.67
2023-04-11T03:07:27.201Z,8.60
2023-04-11T03:12:31.472Z,8.61
2023-04-11T03:17:35.531Z,8.62
2023-04-11T03:22:39.697Z,8.64
2023-04-11T03:27:43.874Z,8.62
2023-04-11T03:32:48.196Z,8.58
2023-04-11T03:37:52.692Z,8.51
2023-04-11T03:42:56.349Z,8.48
2023-04-11T03:48:00.596Z,8.45
2023-04-11T03:53:04.696Z,8.46
2023-04-11T03:58:08.820Z,8.42
2023-04-11T04:03:13.196Z,8.51
2023-04-11T04:08:17.149Z,8.48
2023-04-11T04:13:21.353Z,8.40
2023-04-11T04:18:25.478Z,8.34
2023-04-11T04:23:29.606Z,8.28
2023-04-11T04:28:33.774Z,8.29
2023-04-11T04:33:37.950Z,8.31
2023-04-11T04:38:42.336Z,8.36
2023-04-11T04:43:46.281Z,8.34
2023-04-11T04:48:50.477Z,8.30
2023-04-11T04:53:52.727Z,8.30
2023-04-11T04:58:56.909Z,8.29
2023-04-11T05:04:01.722Z,8.29
2023-04-11T05:09:03.299Z,8.32
2023-04-11T05:14:07.460Z,8.31
2023-04-11T05:19:11.640Z,8.26
2023-04-11T05:24:15.806Z,8.24
2023-04-11T05:29:19.930Z,8.25
2023-04-11T05:34:24.154Z,8.23
2023-04-11T05:39:28.267Z,8.22
2023-04-11T05:44:32.423Z,8.17
2023-04-11T05:49:36.609Z,8.23
2023-04-11T05:54:40.783Z,8.28
2023-04-11T05:59:44.938Z,8.23
2023-04-11T06:04:49.204Z,8.33
2023-04-11T06:09:53.270Z,8.73
2023-04-11T06:14:57.454Z,8.80
2023-04-11T06:20:02.911Z,8.54
2023-04-11T06:25:05.738Z,8.35
2023-04-11T06:30:09.876Z,8.37
2023-04-11T06:35:14.096Z,8.51
2023-04-11T06:40:18.218Z,8.55
2023-04-11T06:45:22.429Z,8.52
2023-04-11T06:50:26.581Z,8.66
2023-04-11T06:55:28.824Z,8.78
2023-04-11T07:00:32.997Z,8.93
2023-04-11T07:05:35.917Z,8.76
2023-04-11T07:10:39.456Z,8.86
2023-04-11T07:15:43.583Z,9.08
2023-04-11T07:20:47.738Z,9.12
2023-04-11T07:25:51.940Z,9.37
2023-04-11T07:30:56.071Z,9.16
2023-04-11T07:36:00.373Z,9.14
2023-04-11T07:41:04.420Z,9.31
2023-04-11T07:46:08.589Z,9.41
2023-04-11T07:51:12.720Z,9.42
2023-04-11T07:56:16.882Z,9.73
2023-04-11T08:01:21.098Z,9.50
2023-04-11T08:06:25.207Z,9.48
2023-04-11T08:11:29.446Z,9.56
2023-04-11T08:16:33.594Z,9.76
2023-04-11T08:21:37.695Z,10.23
2023-04-11T08:26:41.842Z,10.10
2023-04-11T08:31:45.988Z,10.31
2023-04-11T08:36:50.177Z,10.36
2023-04-11T08:41:54.340Z,10.44
2023-04-11T08:46:58.548Z,10.73
2023-04-11T08:52:00.813Z,10.78
2023-04-11T08:57:04.922Z,10.88
2023-04-11T09:02:07.473Z,10.70
2023-04-11T09:07:11.339Z,10.90
2023-04-11T09:12:15.495Z,11.37
2023-04-11T09:17:19.715Z,10.93
2023-04-11T09:22:23.805Z,10.91
2023-04-11T09:27:28.012Z,11.16
2023-04-11T09:32:32.325Z,11.39
2023-04-11T09:37:36.358Z,11.62
2023-04-11T09:42:40.519Z,11.55
2023-04-11T09:47:45.016Z,11.50
2023-04-11T09:52:48.821Z,11.63
2023-04-11T09:57:52.999Z,11.38
2023-04-11T10:02:57.375Z,11.01
2023-04-11T10:08:01.271Z,11.05
2023-04-11T10:13:05.437Z,11.22
2023-04-11T10:18:09.659Z,11.49
2023-04-11T10:23:13.773Z,10.87
2023-04-11T10:28:17.894Z,10.71
2023-04-11T10:33:22.076Z,11.09
2023-04-11T10:38:26.274Z,11.50
2023-04-11T10:43:30.408Z,11.84
2023-04-11T10:48:32.692Z,12.02
2023-04-11T10:53:36.875Z,12.33
2023-04-11T10:58:39.125Z,12.47
2023-04-11T11:03:43.474Z,12.29
2023-04-11T11:13:51.565Z,12.83
2023-04-11T11:24:00.051Z,12.78
2023-04-11T11:29:04.071Z,12.40
2023-04-11T11:34:22.675Z,12.83
2023-04-11T11:39:12.394Z,13.10
2023-04-11T11:44:16.548Z,12.64
2023-04-11T11:49:20.754Z,12.94
2023-04-11T11:54:24.892Z,13.25
2023-04-11T11:59:29.037Z,13.42
2023-04-11T12:04:31.382Z,13.57
2023-04-11T12:09:42.468Z,13.55
2023-04-11T12:14:53.673Z,13.24
2023-04-11T12:20:04.789Z,13.61
2023-04-11T12:25:15.968Z,14.12
2023-04-11T12:30:28.264Z,13.87
2023-04-11T12:35:38.297Z,13.43
2023-04-11T12:40:49.661Z,13.21
2023-04-11T12:56:07.035Z,13.54
2023-04-11T13:01:09.488Z,13.38
2023-04-11T13:06:27.497Z,12.98
2023-04-11T13:11:45.710Z,12.93
2023-04-11T13:17:03.849Z,12.69
2023-04-11T13:22:22.064Z,12.55
2023-04-11T13:27:31.356Z,12.47
2023-04-11T13:32:42.470Z,12.46
2023-04-11T13:37:53.667Z,12.67
2023-04-11T13:43:04.787Z,13.68
2023-04-11T13:48:16.068Z,13.01
2023-04-11T13:53:34.170Z,13.68
2023-04-11T13:58:38.361Z,14.20
2023-04-11T14:03:40.719Z,14.52
2023-04-11T14:08:44.784Z,14.60
2023-04-11T14:13:48.897Z,14.67
2023-04-11T14:18:53.077Z,13.74
2023-04-11T14:23:57.437Z,13.51
2023-04-11T14:29:01.427Z,14.07
2023-04-11T14:34:05.515Z,14.38
2023-04-11T14:39:09.708Z,14.86
2023-04-11T14:44:13.851Z,15.04
2023-04-11T14:49:18.121Z,14.98
2023-04-11T14:54:22.171Z,14.34
2023-04-11T14:59:26.382Z,13.70
2023-04-11T15:04:30.581Z,13.80
2023-04-11T15:09:34.725Z,14.03
2023-04-11T15:14:38.803Z,13.70
2023-04-11T15:19:42.976Z,13.46
2023-04-11T15:24:47.124Z,13.91
2023-04-11T15:29:51.315Z,14.02
2023-04-11T15:34:55.430Z,14.34
2023-04-11T15:39:59.619Z,13.87
2023-04-11T15:45:03.797Z,13.74
2023-04-11T15:50:06.127Z,13.81
2023-04-11T15:55:10.245Z,13.72
2023-04-11T16:00:14.355Z,14.75
2023-04-11T16:05:18.647Z,13.81
2023-04-11T16:10:22.744Z,15.04
2023-04-11T16:15:26.849Z,16.76
2023-04-11T16:20:31.041Z,16.97
2023-04-11T16:25:35.203Z,16.84
2023-04-11T16:30:39.322Z,17.01
2023-04-11T16:35:43.504Z,17.07
2023-04-11T16:40:47.796Z,17.37
2023-04-11T16:45:51.851Z,18.18
2023-04-11T16:50:56.015Z,17.45
2023-04-11T16:56:00.165Z,15.81
2023-04-11T17:01:04.333Z,14.44
2023-04-11T17:06:08.461Z,13.57
2023-04-11T17:11:12.623Z,13.22
2023-04-11T17:16:16.837Z,13.05
2023-04-11T17:21:20.900Z,12.75
2023-04-11T17:26:25.067Z,12.57
2023-04-11T17:31:29.447Z,12.36
2023-04-11T17:36:31.524Z,12.05
2023-04-11T17:41:35.671Z,11.87
2023-04-11T17:46:38.185Z,11.63
2023-04-11T17:51:48.779Z,11.47
2023-04-11T17:56:44.414Z,11.32
2023-04-11T18:01:48.612Z,11.20
2023-04-11T18:06:52.776Z,11.07
2023-04-11T18:11:56.889Z,11.00
2023-04-11T18:17:01.119Z,10.94
2023-04-11T18:22:05.191Z,10.85
2023-04-11T18:32:13.511Z,10.58
2023-04-11T18:37:17.778Z,10.43
2023-04-11T18:42:21.853Z,10.34
2023-04-11T18:47:26.125Z,10.31
2023-04-11T18:52:30.186Z,10.23
2023-04-11T18:57:36.231Z,10.15
2023-04-11T19:02:38.598Z,9.97
2023-04-11T19:07:42.688Z,9.80
2023-04-11T19:12:46.836Z,9.63
2023-04-11T19:17:51.044Z,9.48
2023-04-11T19:22:55.126Z,9.39
2023-04-11T19:27:59.315Z,9.32
2023-04-11T19:33:03.602Z,9.24
2023-04-11T19:38:07.651Z,9.07
2023-04-11T19:43:11.788Z,8.93
2023-04-11T19:53:18.628Z,8.89
2023-04-11T19:58:20.460Z,8.78
2023-04-11T20:03:24.857Z,8.71
2023-04-11T20:08:26.908Z,8.74
2023-04-11T20:13:31.238Z,8.82
2023-04-11T20:18:35.276Z,8.87
2023-04-11T20:23:39.431Z,8.81
2023-04-11T20:28:43.561Z,8.82
2023-04-11T20:33:47.733Z,8.76
2023-04-11T20:38:51.863Z,8.80
2023-04-11T20:43:56.370Z,8.79
2023-04-11T20:49:00.211Z,8.77
2023-04-11T20:54:04.371Z,8.74
2023-04-11T20:59:08.523Z,8.71
2023-04-11T21:04:12.888Z,8.72
2023-04-11T21:09:16.840Z,8.85
2023-04-11T21:14:21.021Z,8.93
2023-04-11T21:19:25.137Z,8.95
2023-04-11T21:24:29.406Z,8.99
2023-04-11T21:29:33.513Z,9.01
2023-04-11T21:34:37.881Z,8.98
2023-04-11T21:39:41.800Z,8.97
2023-04-11T21:44:46.014Z,8.93
2023-04-11T21:49:50.120Z,8.98
2023-04-11T21:54:52.417Z,9.06
2023-04-11T21:59:56.578Z,9.04
2023-04-11T22:05:06.390Z,9.11
2023-04-11T22:10:03.000Z,9.09
2023-04-11T22:15:07.185Z,9.11
2023-04-11T22:20:11.363Z,9.08
2023-04-11T22:25:15.499Z,9.12
2023-04-11T22:30:19.666Z,9.09
2023-04-11T22:35:23.858Z,9.07
2023-04-11T22:40:28.012Z,9.06
2023-04-11T22:45:32.194Z,9.06
2023-04-11T22:50:36.301Z,9.02
2023-04-11T22:55:40.503Z,9.03
2023-04-11T23:00:44.718Z,9.08
2023-04-11T23:05:48.804Z,9.08
2023-04-11T23:10:52.952Z,9.11
2023-04-11T23:15:57.102Z,9.09
2023-04-11T23:21:01.289Z,9.06
2023-04-11T23:26:05.448Z,9.06
2023-04-11T23:31:09.604Z,9.06
2023-04-11T23:36:13.858Z,9.12
2023-04-11T23:41:17.905Z,9.13
2023-04-11T23:46:22.127Z,9.15
2023-04-11T23:51:24.384Z,9.14
2023-04-11T23:56:28.507Z,9.12
